Home > Products > Valid Products > TAF

000
FTUS46 KMFR 030544
TAFLMT
TAF
KLMT 030544Z 0306/0406 VRB05KT P6SM SCT060 SCT120 SCT250
     FM031900 18011KT P6SM BKN080 OVC250
     FM032200 18011KT P6SM VCTS BKN080CB BKN120 OVC250
     FM040300 24005KT P6SM VCSH BKN050 OVC100=



000
FTUS46 KMFR 030544
TAFMFR
TAF
KMFR 030544Z 0306/0406 30004KT P6SM SCT050 BKN250
     FM032000 32008KT P6SM VCSH BKN050
     FM040400 35003KT P6SM VCSH BKN050=



000
FTUS46 KMFR 030544
TAFOTH
TAF
KOTH 030544Z 0306/0406 VRB03KT P6SM OVC012
     FM031200 01004KT 4SM BR OVC008
     FM031700 35012KT P6SM VCSH BKN020 BKN080
     FM032100 35012G18KT P6SM -SHRA BKN020 OVC070=



000
FTUS46 KMFR 030544
TAFRBG
TAF
KRBG 030544Z 0306/0406 VRB03KT P6SM FEW050 BKN080
     FM031200 VRB03KT P6SM BKN020
     FM032000 35005KT P6SM VCSH SCT020 BKN100
     FM040100 35004KT P6SM -SHRA BKN020 OVC060=



000
FTUS46 KMFR 030025 AAA
TAFRBG
TAF AMD
KRBG 030025Z 0300/0324 33009KT P6SM SCT050 SCT100
      TEMPO 0300/0302 3SM TSRA BKN080CB
     FM030200 33009KT P6SM VCTS SCT050CB BKN080
     FM030400 VRB03KT P6SM FEW050 BKN080
     FM031200 VRB02KT P6SM BKN018
     FM031800 35005KT P6SM VCSH SCT020 BKN060=



000
FTUS46 KMFR 030025 AAA
TAFRBG
TAF AMD
KRBG 030025Z 0300/0324 33009KT P6SM SCT050 SCT100
      TEMPO 0300/0302 3SM TSRA BKN080CB
     FM030200 33009KT P6SM VCTS SCT050CB BKN080
     FM030400 VRB03KT P6SM FEW050 BKN080
     FM031200 VRB02KT P6SM BKN018
     FM031800 35005KT P6SM VCSH SCT020 BKN060=



000
FTUS46 KMFR 022332
TAFLMT
TAF
KLMT 022332Z 0300/0324 18007KT P6SM -SHRA VCTS BKN050CB BKN120
     FM030500 VRB05KT P6SM SCT060 SCT120 SCT250
     FM031900 18011KT P6SM BKN080=



000
FTUS46 KMFR 022332
TAFLMT
TAF
KLMT 022332Z 0300/0324 18007KT P6SM -SHRA VCTS BKN050CB BKN120
     FM030500 VRB05KT P6SM SCT060 SCT120 SCT250
     FM031900 18011KT P6SM BKN080=



000
FTUS46 KMFR 022332
TAFOTH
TAF
KOTH 022332Z 0300/0324 24009KT P6SM SCT025
     FM030200 25006KT P6SM BKN025
     FM030600 VRB03KT P6SM OVC012
     FM031200 01004KT 4SM BR OVC008
     FM031700 35012KT P6SM VCSH BKN020 BKN080=



000
FTUS46 KMFR 022332
TAFRBG
TAF
KRBG 022332Z 0300/0324 33009KT P6SM SCT050 SCT100
     FM030100 33009KT P6SM VCTS SCT050CB BKN080
     FM030400 VRB03KT P6SM FEW050 BKN080
     FM031200 VRB02KT P6SM BKN018
     FM031800 35005KT P6SM VCSH SCT020 BKN060=



000
FTUS46 KMFR 022332
TAFMFR
TAF
KMFR 022332Z 0300/0324 28007KT P6SM VCTS SCT050CB BKN080
     FM030300 30004KT P6SM SCT050 BKN250
     FM032000 32008KT P6SM VCSH BKN050=



000
FTUS46 KMFR 022332
TAFMFR
TAF
KMFR 022332Z 0300/0324 28007KT P6SM VCTS SCT050CB BKN080
     FM030300 30004KT P6SM SCT050 BKN250
     FM032000 32008KT P6SM VCSH BKN050=



000
FTUS46 KMFR 022332
TAFOTH
TAF
KOTH 022332Z 0300/0324 24009KT P6SM SCT025
     FM030200 25006KT P6SM BKN025
     FM030600 VRB03KT P6SM OVC012
     FM031200 01004KT 4SM BR OVC008
     FM031700 35012KT P6SM VCSH BKN020 BKN080=



000
FTUS46 KMFR 022332
TAFRBG
TAF
KRBG 022332Z 0300/0324 33009KT P6SM SCT050 SCT100
     FM030100 33009KT P6SM VCTS SCT050CB BKN080
     FM030400 VRB03KT P6SM FEW050 BKN080
     FM031200 VRB02KT P6SM BKN018
     FM031800 35005KT P6SM VCSH SCT020 BKN060=



000
FTUS46 KMFR 021738
TAFRBG
TAF
KRBG 021738Z 0218/0318 VRB03KT P6SM FEW050
     FM022200 35007KT P6SM SCT050 SCT100
     FM030100 33009KT P6SM VCTS SCT050CB BKN080
     FM030400 VRB03KT P6SM FEW050 BKN080=



000
FTUS46 KMFR 021738
TAFMFR
TAF
KMFR 021738Z 0218/0318 VRB03KT P6SM SCT050
     FM022200 28008KT P6SM VCTS SCT050CB BKN080
     FM030300 VRB04KT P6SM BKN050 BKN080=



000
FTUS46 KMFR 021738
TAFLMT
TAF
KLMT 021738Z 0218/0318 18006KT P6SM SCT050
     FM022100 18007KT P6SM -SHRA VCTS BKN050CB BKN080
     FM030600 VRB05KT P6SM SCT060 SCT120 SCT250=



000
FTUS46 KMFR 021738
TAFOTH
TAF
KOTH 021738Z 0218/0318 28006KT P6SM SKC
     FM022100 24009KT P6SM SCT025
     FM030100 25006KT P6SM BKN025
     FM030600 VRB03KT P6SM OVC012=



000
FTUS46 KMFR 021738
TAFLMT
TAF
KLMT 021738Z 0218/0318 18006KT P6SM SCT050
     FM022100 18007KT P6SM -SHRA VCTS BKN050CB BKN080
     FM030600 VRB05KT P6SM SCT060 SCT120 SCT250=



000
FTUS46 KMFR 021738
TAFOTH
TAF
KOTH 021738Z 0218/0318 28006KT P6SM SKC
     FM022100 24009KT P6SM SCT025
     FM030100 25006KT P6SM BKN025
     FM030600 VRB03KT P6SM OVC012=



000
FTUS46 KMFR 021738
TAFRBG
TAF
KRBG 021738Z 0218/0318 VRB03KT P6SM FEW050
     FM022200 35007KT P6SM SCT050 SCT100
     FM030100 33009KT P6SM VCTS SCT050CB BKN080
     FM030400 VRB03KT P6SM FEW050 BKN080=



000
FTUS46 KMFR 021738
TAFMFR
TAF
KMFR 021738Z 0218/0318 VRB03KT P6SM SCT050
     FM022200 28008KT P6SM VCTS SCT050CB BKN080
     FM030300 VRB04KT P6SM BKN050 BKN080=



000
FTUS46 KMFR 021123
TAFOTH
TAF
KOTH 021123Z 0212/0312 15006KT P6SM SCT100
     FM021600 20007KT P6SM SCT100
     FM022200 24009KT P6SM BKN080
     FM030600 VRB03KT P6SM OVC012=



000
FTUS46 KMFR 021123
TAFRBG
TAF
KRBG 021123Z 0212/0312 VRB03KT P6SM SCT100
     FM022200 35007KT P6SM SCT050 SCT100
     FM030100 33009KT P6SM SCT050 BKN080
     FM030400 VRB03KT P6SM FEW050 BKN080=



000
FTUS46 KMFR 021123
TAFOTH
TAF
KOTH 021123Z 0212/0312 15006KT P6SM SCT100
     FM021600 20007KT P6SM SCT100
     FM022200 24009KT P6SM BKN080
     FM030600 VRB03KT P6SM OVC012=



000
FTUS46 KMFR 021123
TAFRBG
TAF
KRBG 021123Z 0212/0312 VRB03KT P6SM SCT100
     FM022200 35007KT P6SM SCT050 SCT100
     FM030100 33009KT P6SM SCT050 BKN080
     FM030400 VRB03KT P6SM FEW050 BKN080=



000
FTUS46 KMFR 021123
TAFLMT
TAF
KLMT 021123Z 0212/0312 VRB04KT P6SM SCT100
     FM021900 17007KT P6SM SCT060 SCT100
     FM030300 20007KT P6SM BKN060 BKN120
     FM030600 VRB05KT P6SM SCT060 SCT120 SCT250=



000
FTUS46 KMFR 021123
TAFMFR
TAF
KMFR 021123Z 0212/0312 VRB03KT P6SM BKN100
     FM021900 14004KT P6SM FEW070 SCT100
     FM022200 28008KT P6SM SCT050 BKN080
     FM030300 VRB04KT P6SM BKN050 BKN080=



000
FTUS46 KMFR 021123
TAFMFR
TAF
KMFR 021123Z 0212/0312 VRB03KT P6SM BKN100
     FM021900 14004KT P6SM FEW070 SCT100
     FM022200 28008KT P6SM SCT050 BKN080
     FM030300 VRB04KT P6SM BKN050 BKN080=



000
FTUS46 KMFR 021123
TAFLMT
TAF
KLMT 021123Z 0212/0312 VRB04KT P6SM SCT100
     FM021900 17007KT P6SM SCT060 SCT100
     FM030300 20007KT P6SM BKN060 BKN120
     FM030600 VRB05KT P6SM SCT060 SCT120 SCT250=



000
FTUS46 KMFR 020544
TAFOTH
TAF
KOTH 020544Z 0206/0306 VRB03KT P6SM SKC
     FM021000 17010KT P6SM SCT100
     FM022200 24009KT P6SM BKN080=



000
FTUS46 KMFR 020544
TAFRBG
TAF
KRBG 020544Z 0206/0306 VRB02KT P6SM SKC
     FM022200 35007KT P6SM SCT050
     FM030400 VRB03KT P6SM SCT050=



000
FTUS46 KMFR 020544
TAFMFR
TAF
KMFR 020544Z 0206/0306 VRB03KT P6SM SKC
     FM021900 14004KT P6SM SCT070
     FM022200 28008KT P6SM SCT050
     FM030400 VRB03KT P6SM BKN050=



000
FTUS46 KMFR 020544
TAFLMT
TAF
KLMT 020544Z 0206/0306 14007KT P6SM SKC
     FM021200 10004KT P6SM SKC
     FM021900 17007KT P6SM SCT080
     FM030400 24007KT P6SM BKN060=



000
FTUS46 KMFR 012325
TAFRBG
TAF
KRBG 012325Z 0200/0224 33006KT P6SM SKC
     FM020400 VRB02KT P6SM SKC
     FM021900 34005KT P6SM SCT040 SCT070=



000
FTUS46 KMFR 012325
TAFLMT
TAF
KLMT 012325Z 0200/0224 16012G21KT P6SM SCT080
     FM020300 14007KT P6SM SKC
     FM021200 10004KT P6SM SKC
     FM021900 17007KT P6SM SCT080=



000
FTUS46 KMFR 012325
TAFOTH
TAF
KOTH 012325Z 0200/0224 06010KT P6SM SKC
     FM020500 VRB04KT P6SM SKC
     FM021900 27009KT P6SM SCT080=



000
FTUS46 KMFR 012325
TAFMFR
TAF
KMFR 012325Z 0200/0224 17011G19KT P6SM SKC
     FM020300 VRB03KT P6SM SKC
     FM021900 14008KT P6SM SCT060
     FM022200 27008KT P6SM SCT050=



000
FTUS46 KMFR 011733
TAFOTH
TAF
KOTH 011733Z 0118/0218 03006KT P6SM SKC
     FM012100 02010KT P6SM SKC
     FM020500 VRB04KT P6SM SKC=



000
FTUS46 KMFR 011733
TAFRBG
TAF
KRBG 011733Z 0118/0218 01005KT P6SM SKC
     FM012200 33006G13KT P6SM SKC
     FM020300 VRB02KT P6SM SKC=



000
FTUS46 KMFR 011733
TAFMFR
TAF
KMFR 011733Z 0118/0218 VRB03KT P6SM SKC=



000
FTUS46 KMFR 011733
TAFLMT
TAF
KLMT 011733Z 0118/0218 08012KT P6SM SKC
     FM011900 11012G22KT P6SM SCT080
     FM020300 12007KT P6SM SKC
     FM021200 10004KT P6SM SKC=



000
FTUS46 KMFR 011559 AAA
TAFOTH
TAF AMD
KOTH 011559Z 0116/0212 03006KT P6SM SKC
     FM012100 02010KT P6SM SKC
     FM020500 VRB04KT P6SM SKC=



000
FTUS46 KMFR 011128
TAFOTH
TAF
KOTH 011128Z 0112/0212 VRB02KT 1/2SM FG OVC001
     FM011500 VRB04KT 4SM BR SCT005
     FM011700 03006KT P6SM SKC
     FM012100 02010KT P6SM SKC
     FM020500 VRB04KT P6SM SKC=



000
FTUS46 KMFR 011128
TAFRBG
TAF
KRBG 011128Z 0112/0212 VRB02KT P6SM SKC
     FM011800 01005KT P6SM SKC
     FM020400 VRB02KT P6SM SKC=



000
FTUS46 KMFR 011128
TAFLMT
TAF
KLMT 011128Z 0112/0212 04006KT P6SM SKC
     FM011600 02012KT P6SM SKC
     FM011900 14012G22KT P6SM SCT080
     FM020300 12007KT P6SM SKC=



000
FTUS46 KMFR 011128
TAFMFR
TAF
KMFR 011128Z 0112/0212 VRB03KT P6SM SKC=



000
FTUS46 KMFR 011119 AAA
TAFOTH
TAF AMD
KOTH 011119Z 0111/0206 VRB02KT 1/2SM FG OVC001
     FM011500 VRB04KT 4SM BR SCT005
     FM011700 03006KT P6SM SKC
     FM012100 02010KT P6SM SKC
     FM020500 VRB04KT P6SM SKC=



000
FTUS46 KMFR 011119 AAA
TAFOTH
TAF AMD
KOTH 011119Z 0111/0206 VRB02KT 1/2SM FG OVC001
     FM011500 VRB04KT 4SM BR SCT005
     FM011700 03006KT P6SM SKC
     FM012100 02010KT P6SM SKC
     FM020500 VRB04KT P6SM SKC=



000
FTUS46 KMFR 010533
TAFMFR
TAF
KMFR 010533Z 0106/0206 VRB03KT P6SM SKC=



000
FTUS46 KMFR 010533
TAFOTH
TAF
KOTH 010533Z 0106/0206 01012G20KT P6SM SKC
     FM010700 04006KT P6SM SKC
     FM011900 34012KT P6SM SKC
     FM020400 15004KT P6SM SKC=



000
FTUS46 KMFR 010533
TAFRBG
TAF
KRBG 010533Z 0106/0206 VRB02KT P6SM SKC
     FM011800 01007KT P6SM SKC=



000
FTUS46 KMFR 010533
TAFLMT
TAF
KLMT 010533Z 0106/0206 36012KT P6SM SKC
     FM010900 35007KT P6SM SKC
     FM011600 02015KT P6SM SKC
     FM011900 14012G22KT P6SM SCT080
     FM020300 14007KT P6SM SKC=



000
FTUS46 KMFR 302329
TAFOTH
TAF
KOTH 302329Z 0100/0124 35021G28KT P6SM SKC
     FM010400 01012G20KT P6SM SKC
     FM010700 04005KT P6SM SKC
     FM011900 34012KT P6SM SKC=



000
FTUS46 KMFR 302329
TAFRBG
TAF
KRBG 302329Z 0100/0124 01012G19KT P6SM SKC
     FM010400 VRB02KT P6SM SKC
     FM011800 01007KT P6SM SKC=



000
FTUS46 KMFR 302329
TAFMFR
TAF
KMFR 302329Z 0100/0124 34007KT P6SM SKC
     FM010500 VRB03KT P6SM SKC=



000
FTUS46 KMFR 302329
TAFLMT
TAF
KLMT 302329Z 0100/0124 04015G24KT P6SM SCT060
     FM010300 36012KT P6SM SKC
     FM010900 35007KT P6SM SKC
     FM011600 02015KT P6SM SKC
     FM011900 14018G27KT P6SM SCT080=



000
FTUS46 KMFR 301752
TAFOTH
TAF
KOTH 301752Z 3018/0118 35012G20KT P6SM SCT025
     FM302000 36020G30KT P6SM SCT030
     FM010600 01010G16KT P6SM OVC250
     FM011100 04004KT P6SM OVC020=



000
FTUS46 KMFR 301752
TAFLMT
TAF
KLMT 301752Z 3018/0118 35012KT P6SM SCT040
     FM301900 35019G28KT P6SM SCT040
     FM010300 36010KT P6SM SKC=



000
FTUS46 KMFR 301752
TAFMFR
TAF
KMFR 301752Z 3018/0118 32006KT P6SM FEW030
     FM010000 34009KT P6SM SKC
     FM010600 VRB02KT P6SM SKC=



000
FTUS46 KMFR 301752
TAFRBG
TAF
KRBG 301752Z 3018/0118 36012G18KT P6SM SCT025
     FM010000 01014G21KT P6SM SKC
     FM010600 VRB02KT P6SM SKC=



000
FTUS46 KMFR 301137
TAFLMT
TAF
KLMT 301137Z 3012/0112 31008KT P6SM SCT040
     FM301700 35019G28KT P6SM SCT040
     FM010300 36010KT P6SM SKC=



000
FTUS46 KMFR 301137
TAFOTH
TAF
KOTH 301137Z 3012/0112 03008KT P6SM SCT025
     FM301700 35012G20KT P6SM SCT025
     FM302000 36020G30KT P6SM SCT030
     FM010600 01010G16KT P6SM OVC250
     FM011100 04004KT P6SM OVC020=



000
FTUS46 KMFR 301137
TAFMFR
TAF
KMFR 301137Z 3012/0112 32002KT P6SM FEW030
     FM010000 34009KT P6SM SKC
     FM010600 VRB02KT P6SM SKC=



000
FTUS46 KMFR 301137
TAFLMT
TAF
KLMT 301137Z 3012/0112 31008KT P6SM SCT040
     FM301700 35019G28KT P6SM SCT040
     FM010300 36010KT P6SM SKC=



000
FTUS46 KMFR 301137
TAFOTH
TAF
KOTH 301137Z 3012/0112 03008KT P6SM SCT025
     FM301700 35012G20KT P6SM SCT025
     FM302000 36020G30KT P6SM SCT030
     FM010600 01010G16KT P6SM OVC250
     FM011100 04004KT P6SM OVC020=



000
FTUS46 KMFR 301137
TAFMFR
TAF
KMFR 301137Z 3012/0112 32002KT P6SM FEW030
     FM010000 34009KT P6SM SKC
     FM010600 VRB02KT P6SM SKC=



000
FTUS46 KMFR 301137
TAFRBG
TAF
KRBG 301137Z 3012/0112 36002KT P6SM SCT025 OVC035
     FM301800 01012G18KT P6SM SCT025
     FM010000 01014G21KT P6SM SKC
     FM010600 VRB02KT P6SM SKC=



    US Dept of Commerce
    National Oceanic and Atmospheric Administration
    National Weather Service
    1325 East West Highway
    Silver Spring, MD 20910
    Page Author: NWS Internet Services Team
Disclaimer
Information Quality
Credits
Glossary
Privacy Policy
Freedom of Information Act (FOIA)
About Us
Career Opportunities